Terminal Aerodrome Forecast
Issued by NWS

Home | Current Version | Previous Version | Text Only | Print | Product List | Glossary On
Versions: 1 2 3 4 5 6 7 8 9 10 11 12 13 14 15 16 17
819
FTUS45 KRIW 202337
TAFJAC
TAF
KJAC 202337Z 2100/2124 VRB04KT P6SM VCSH SCT030 BKN060
     FM211000 VRB03KT P6SM VCSH OVC030
     FM211700 VRB03KT 5SM -SN OVC020
     FM212300 19006KT 3SM -SN OVC015
      AMD LTD TO CLD VIS AND WIND=

USA.gov is the U.S. government's official web portal to all federal, state and local government web resources and services.